sensor_id;sensor_type;location;lat;lon;timestamp;pressure;altitude;pressure_sealevel;temperature;humidity
61318;BME280;47201;40.428;-8.436;2023-06-10T00:00:38;100377.13;;;18.61;100.00
61318;BME280;47201;40.428;-8.436;2023-06-10T00:02:41;100373.53;;;18.62;100.00
61318;BME280;47201;40.428;-8.436;2023-06-10T00:04:43;100374.34;;;18.64;100.00
61318;BME280;47201;40.428;-8.436;2023-06-10T00:06:43;100372.50;;;18.66;100.00
61318;BME280;47201;40.428;-8.436;2023-06-10T00:08:44;100371.41;;;18.71;100.00
61318;BME280;47201;40.428;-8.436;2023-06-10T00:10:47;100376.69;;;18.71;100.00
61318;BME280;47201;40.428;-8.436;2023-06-10T00:12:48;100376.53;;;18.75;100.00
61318;BME280;47201;40.428;-8.436;2023-06-10T00:14:48;100371.94;;;18.80;100.00
61318;BME280;47201;40.428;-8.436;2023-06-10T00:16:51;100380.06;;;18.75;100.00
61318;BME280;47201;40.428;-8.436;2023-06-10T00:18:52;100374.88;;;18.72;100.00
61318;BME280;47201;40.428;-8.436;2023-06-10T00:20:53;100376.69;;;18.71;100.00
61318;BME280;47201;40.428;-8.436;2023-06-10T00:22:55;100370.50;;;18.71;100.00
61318;BME280;47201;40.428;-8.436;2023-06-10T00:24:57;100371.56;;;18.67;100.00
61318;BME280;47201;40.428;-8.436;2023-06-10T00:26:57;100370.84;;;18.63;100.00
61318;BME280;47201;40.428;-8.436;2023-06-10T00:28:58;100369.19;;;18.61;100.00
61318;BME280;47201;40.428;-8.436;2023-06-10T00:30:59;100371.03;;;18.59;100.00
61318;BME280;47201;40.428;-8.436;2023-06-10T00:32:59;100370.28;;;18.55;100.00
61318;BME280;47201;40.428;-8.436;2023-06-10T00:35:00;100365.16;;;18.50;100.00
61318;BME280;47201;40.428;-8.436;2023-06-10T00:37:01;100361.84;;;18.45;100.00
61318;BME280;47201;40.428;-8.436;2023-06-10T00:39:01;100365.59;;;18.39;100.00
61318;BME280;47201;40.428;-8.436;2023-06-10T00:41:03;100364.84;;;18.36;100.00
61318;BME280;47201;40.428;-8.436;2023-06-10T00:43:04;100364.97;;;18.33;100.00
61318;BME280;47201;40.428;-8.436;2023-06-10T00:45:05;100360.56;;;18.33;100.00
61318;BME280;47201;40.428;-8.436;2023-06-10T00:47:05;100362.28;;;18.34;100.00
61318;BME280;47201;40.428;-8.436;2023-06-10T00:49:06;100358.66;;;18.37;100.00
61318;BME280;47201;40.428;-8.436;2023-06-10T00:51:08;100348.72;;;18.42;100.00
61318;BME280;47201;40.428;-8.436;2023-06-10T00:53:09;100349.78;;;18.38;100.00
61318;BME280;47201;40.428;-8.436;2023-06-10T00:55:10;100345.41;;;18.37;100.00
61318;BME280;47201;40.428;-8.436;2023-06-10T00:57:10;100352.47;;;18.36;100.00
61318;BME280;47201;40.428;-8.436;2023-06-10T00:59:13;100345.53;;;18.34;100.00
61318;BME280;47201;40.428;-8.436;2023-06-10T01:01:15;100349.09;;;18.33;100.00
61318;BME280;47201;40.428;-8.436;2023-06-10T01:03:15;100359.63;;;18.34;100.00
61318;BME280;47201;40.428;-8.436;2023-06-10T01:05:17;100351.72;;;18.33;100.00
61318;BME280;47201;40.428;-8.436;2023-06-10T01:07:24;100349.22;;;18.30;100.00
61318;BME280;47201;40.428;-8.436;2023-06-10T01:11:36;100352.63;;;18.33;100.00
61318;BME280;47201;40.428;-8.436;2023-06-10T01:13:41;100355.31;;;18.32;100.00
61318;BME280;47201;40.428;-8.436;2023-06-10T01:15:42;100361.38;;;18.35;100.00
61318;BME280;47201;40.428;-8.436;2023-06-10T01:20:16;100345.16;;;18.43;100.00
61318;BME280;47201;40.428;-8.436;2023-06-10T01:22:17;100350.28;;;18.48;100.00
61318;BME280;47201;40.428;-8.436;2023-06-10T01:24:18;100347.69;;;18.46;100.00
61318;BME280;47201;40.428;-8.436;2023-06-10T01:26:20;100345.00;;;18.48;100.00
61318;BME280;47201;40.428;-8.436;2023-06-10T01:28:33;100343.34;;;18.45;100.00
61318;BME280;47201;40.428;-8.436;2023-06-10T01:32:45;100344.44;;;18.39;100.00
61318;BME280;47201;40.428;-8.436;2023-06-10T01:34:51;100335.75;;;18.36;100.00
61318;BME280;47201;40.428;-8.436;2023-06-10T01:36:52;100342.88;;;18.34;100.00
61318;BME280;47201;40.428;-8.436;2023-06-10T01:38:55;100342.84;;;18.35;100.00
61318;BME280;47201;40.428;-8.436;2023-06-10T01:40:56;100343.59;;;18.39;100.00
61318;BME280;47201;40.428;-8.436;2023-06-10T01:42:58;100342.69;;;18.38;100.00
61318;BME280;47201;40.428;-8.436;2023-06-10T01:44:58;100340.97;;;18.37;100.00
61318;BME280;47201;40.428;-8.436;2023-06-10T01:46:59;100343.78;;;18.33;100.00
61318;BME280;47201;40.428;-8.436;2023-06-10T01:49:01;100341.28;;;18.30;100.00
61318;BME280;47201;40.428;-8.436;2023-06-10T01:51:01;100341.34;;;18.28;100.00
61318;BME280;47201;40.428;-8.436;2023-06-10T01:53:03;100340.41;;;18.29;100.00
61318;BME280;47201;40.428;-8.436;2023-06-10T01:55:03;100340.56;;;18.26;100.00
61318;BME280;47201;40.428;-8.436;2023-06-10T01:57:04;100348.41;;;18.28;100.00
61318;BME280;47201;40.428;-8.436;2023-06-10T01:59:06;100352.66;;;18.32;100.00
61318;BME280;47201;40.428;-8.436;2023-06-10T02:01:07;100362.38;;;18.31;100.00
61318;BME280;47201;40.428;-8.436;2023-06-10T02:03:07;100357.09;;;18.31;100.00
61318;BME280;47201;40.428;-8.436;2023-06-10T02:05:08;100354.38;;;18.33;100.00
61318;BME280;47201;40.428;-8.436;2023-06-10T02:07:08;100357.84;;;18.35;100.00
61318;BME280;47201;40.428;-8.436;2023-06-10T02:09:09;100356.81;;;18.39;100.00
61318;BME280;47201;40.428;-8.436;2023-06-10T02:11:10;100360.31;;;18.39;100.00
61318;BME280;47201;40.428;-8.436;2023-06-10T02:13:10;100360.41;;;18.36;100.00
61318;BME280;47201;40.428;-8.436;2023-06-10T02:15:11;100362.88;;;18.41;100.00
61318;BME280;47201;40.428;-8.436;2023-06-10T02:17:11;100363.94;;;18.37;100.00
61318;BME280;47201;40.428;-8.436;2023-06-10T02:19:16;100364.84;;;18.36;100.00
61318;BME280;47201;40.428;-8.436;2023-06-10T02:21:17;100361.41;;;18.34;100.00
61318;BME280;47201;40.428;-8.436;2023-06-10T02:23:18;100361.41;;;18.34;100.00
61318;BME280;47201;40.428;-8.436;2023-06-10T02:25:18;100355.13;;;18.36;100.00
61318;BME280;47201;40.428;-8.436;2023-06-10T02:27:21;100359.50;;;18.37;100.00
61318;BME280;47201;40.428;-8.436;2023-06-10T02:29:22;100361.41;;;18.34;100.00
61318;BME280;47201;40.428;-8.436;2023-06-10T02:31:22;100351.00;;;18.29;100.00
61318;BME280;47201;40.428;-8.436;2023-06-10T02:33:26;100345.88;;;18.24;100.00
61318;BME280;47201;40.428;-8.436;2023-06-10T02:35:27;100342.72;;;18.16;100.00
61318;BME280;47201;40.428;-8.436;2023-06-10T02:37:29;100342.97;;;18.08;100.00
61318;BME280;47201;40.428;-8.436;2023-06-10T02:39:31;100348.59;;;18.01;100.00
61318;BME280;47201;40.428;-8.436;2023-06-10T02:41:32;100349.66;;;17.95;100.00
61318;BME280;47201;40.428;-8.436;2023-06-10T02:43:34;100352.44;;;17.90;100.00
61318;BME280;47201;40.428;-8.436;2023-06-10T02:45:34;100349.97;;;17.86;100.00
61318;BME280;47201;40.428;-8.436;2023-06-10T02:47:37;100353.53;;;17.85;100.00
61318;BME280;47201;40.428;-8.436;2023-06-10T02:49:38;100361.53;;;17.83;100.00
61318;BME280;47201;40.428;-8.436;2023-06-10T02:51:38;100364.81;;;17.90;100.00
61318;BME280;47201;40.428;-8.436;2023-06-10T02:53:39;100360.38;;;17.90;100.00
61318;BME280;47201;40.428;-8.436;2023-06-10T02:55:44;100366.50;;;17.92;100.00
61318;BME280;47201;40.428;-8.436;2023-06-10T02:57:47;100370.03;;;17.91;100.00
61318;BME280;47201;40.428;-8.436;2023-06-10T02:59:48;100374.66;;;17.86;100.00
61318;BME280;47201;40.428;-8.436;2023-06-10T03:01:52;100376.66;;;17.80;100.00
61318;BME280;47201;40.428;-8.436;2023-06-10T03:03:52;100376.88;;;17.73;100.00
61318;BME280;47201;40.428;-8.436;2023-06-10T03:05:53;100382.22;;;17.72;100.00
61318;BME280;47201;40.428;-8.436;2023-06-10T03:07:56;100371.81;;;17.67;100.00
61318;BME280;47201;40.428;-8.436;2023-06-10T03:09:57;100373.72;;;17.64;100.00
61318;BME280;47201;40.428;-8.436;2023-06-10T03:11:59;100378.19;;;17.62;100.00
61318;BME280;47201;40.428;-8.436;2023-06-10T03:14:04;100375.53;;;17.62;100.00
61318;BME280;47201;40.428;-8.436;2023-06-10T03:16:06;100373.75;;;17.62;100.00
61318;BME280;47201;40.428;-8.436;2023-06-10T03:18:10;100379.91;;;17.63;100.00
61318;BME280;47201;40.428;-8.436;2023-06-10T03:20:11;100380.72;;;17.65;100.00
61318;BME280;47201;40.428;-8.436;2023-06-10T03:22:15;100378.78;;;17.70;100.00
61318;BME280;47201;40.428;-8.436;2023-06-10T03:24:29;100382.16;;;17.73;100.00
61318;BME280;47201;40.428;-8.436;2023-06-10T03:26:30;100381.03;;;17.81;100.00
61318;BME280;47201;40.428;-8.436;2023-06-10T03:28:31;100376.41;;;17.86;100.00
61318;BME280;47201;40.428;-8.436;2023-06-10T03:30:32;100380.63;;;17.91;100.00
61318;BME280;47201;40.428;-8.436;2023-06-10T03:32:33;100385.72;;;17.98;100.00
61318;BME280;47201;40.428;-8.436;2023-06-10T03:34:34;100378.66;;;17.98;100.00
61318;BME280;47201;40.428;-8.436;2023-06-10T03:36:35;100381.31;;;17.98;100.00
61318;BME280;47201;40.428;-8.436;2023-06-10T03:38:38;100379.59;;;17.96;100.00
61318;BME280;47201;40.428;-8.436;2023-06-10T03:40:40;100383.19;;;17.93;100.00
61318;BME280;47201;40.428;-8.436;2023-06-10T03:42:41;100379.00;;;17.87;100.00
61318;BME280;47201;40.428;-8.436;2023-06-10T03:44:42;100389.78;;;17.83;100.00
61318;BME280;47201;40.428;-8.436;2023-06-10T03:46:43;100381.19;;;17.76;100.00
61318;BME280;47201;40.428;-8.436;2023-06-10T03:48:44;100376.13;;;17.70;100.00
61318;BME280;47201;40.428;-8.436;2023-06-10T03:50:45;100377.22;;;17.64;100.00
61318;BME280;47201;40.428;-8.436;2023-06-10T03:52:47;100376.38;;;17.64;100.00
61318;BME280;47201;40.428;-8.436;2023-06-10T03:54:48;100375.59;;;17.60;100.00
61318;BME280;47201;40.428;-8.436;2023-06-10T03:56:50;100381.97;;;17.54;100.00
61318;BME280;47201;40.428;-8.436;2023-06-10T03:58:50;100387.34;;;17.51;100.00
61318;BME280;47201;40.428;-8.436;2023-06-10T04:00:51;100390.88;;;17.52;100.00
61318;BME280;47201;40.428;-8.436;2023-06-10T04:02:52;100393.63;;;17.49;100.00
61318;BME280;47201;40.428;-8.436;2023-06-10T04:05:07;100388.47;;;17.46;100.00
61318;BME280;47201;40.428;-8.436;2023-06-10T04:07:07;100384.13;;;17.43;100.00
61318;BME280;47201;40.428;-8.436;2023-06-10T04:09:09;100385.09;;;17.40;100.00
61318;BME280;47201;40.428;-8.436;2023-06-10T04:11:11;100382.59;;;17.36;100.00
61318;BME280;47201;40.428;-8.436;2023-06-10T04:13:11;100388.16;;;17.28;100.00
61318;BME280;47201;40.428;-8.436;2023-06-10T04:15:19;100386.50;;;17.25;100.00
61318;BME280;47201;40.428;-8.436;2023-06-10T04:17:20;100381.31;;;17.22;100.00
61318;BME280;47201;40.428;-8.436;2023-06-10T04:19:21;100391.03;;;17.22;100.00
61318;BME280;47201;40.428;-8.436;2023-06-10T04:21:21;100373.53;;;17.18;100.00
61318;BME280;47201;40.428;-8.436;2023-06-10T04:23:22;100381.59;;;17.15;100.00
61318;BME280;47201;40.428;-8.436;2023-06-10T04:25:23;100379.91;;;17.12;100.00
61318;BME280;47201;40.428;-8.436;2023-06-10T04:27:24;100378.22;;;17.09;100.00
61318;BME280;47201;40.428;-8.436;2023-06-10T04:29:26;100375.50;;;17.12;100.00
61318;BME280;47201;40.428;-8.436;2023-06-10T04:31:27;100375.50;;;17.12;100.00
61318;BME280;47201;40.428;-8.436;2023-06-10T04:33:28;100374.72;;;17.09;100.00
61318;BME280;47201;40.428;-8.436;2023-06-10T04:35:29;100379.19;;;17.07;100.00
61318;BME280;47201;40.428;-8.436;2023-06-10T04:37:32;100385.44;;;17.04;100.00
61318;BME280;47201;40.428;-8.436;2023-06-10T04:39:33;100380.22;;;17.03;100.00
61318;BME280;47201;40.428;-8.436;2023-06-10T04:41:33;100385.59;;;17.00;100.00
61318;BME280;47201;40.428;-8.436;2023-06-10T04:43:34;100382.16;;;16.98;100.00
61318;BME280;47201;40.428;-8.436;2023-06-10T04:45:35;100384.06;;;16.92;100.00
61318;BME280;47201;40.428;-8.436;2023-06-10T04:47:36;100384.06;;;16.92;100.00
61318;BME280;47201;40.428;-8.436;2023-06-10T04:49:36;100383.22;;;16.90;100.00
61318;BME280;47201;40.428;-8.436;2023-06-10T04:51:37;100390.22;;;16.91;100.00
61318;BME280;47201;40.428;-8.436;2023-06-10T04:53:38;100395.53;;;16.93;100.00
61318;BME280;47201;40.428;-8.436;2023-06-10T04:55:38;100395.47;;;16.94;100.00
61318;BME280;47201;40.428;-8.436;2023-06-10T04:57:39;100401.34;;;17.03;100.00
61318;BME280;47201;40.428;-8.436;2023-06-10T04:59:39;100400.28;;;17.08;100.00
61318;BME280;47201;40.428;-8.436;2023-06-10T05:01:40;100408.91;;;17.13;100.00
61318;BME280;47201;40.428;-8.436;2023-06-10T05:03:40;100402.66;;;17.16;100.00
61318;BME280;47201;40.428;-8.436;2023-06-10T05:05:41;100411.41;;;17.18;100.00
61318;BME280;47201;40.428;-8.436;2023-06-10T05:07:41;100406.06;;;17.20;100.00
61318;BME280;47201;40.428;-8.436;2023-06-10T05:09:42;100409.47;;;17.23;100.00
61318;BME280;47201;40.428;-8.436;2023-06-10T05:11:42;100413.81;;;17.24;100.00
61318;BME280;47201;40.428;-8.436;2023-06-10T05:13:43;100419.94;;;17.26;100.00
61318;BME280;47201;40.428;-8.436;2023-06-10T05:15:44;100416.38;;;17.27;100.00
61318;BME280;47201;40.428;-8.436;2023-06-10T05:17:46;100412.00;;;17.26;100.00
61318;BME280;47201;40.428;-8.436;2023-06-10T05:19:46;100405.84;;;17.26;100.00
61318;BME280;47201;40.428;-8.436;2023-06-10T05:21:47;100408.59;;;17.23;100.00
61318;BME280;47201;40.428;-8.436;2023-06-10T05:23:48;100409.53;;;17.22;100.00
61318;BME280;47201;40.428;-8.436;2023-06-10T05:25:48;100416.56;;;17.21;100.00
61318;BME280;47201;40.428;-8.436;2023-06-10T05:27:52;100403.41;;;17.20;100.00
61318;BME280;47201;40.428;-8.436;2023-06-10T05:29:53;100396.47;;;17.17;100.00
61318;BME280;47201;40.428;-8.436;2023-06-10T05:31:53;100405.25;;;17.18;100.00
61318;BME280;47201;40.428;-8.436;2023-06-10T05:33:57;100402.56;;;17.19;100.00
61318;BME280;47201;40.428;-8.436;2023-06-10T05:35:58;100400.69;;;17.23;100.00
61318;BME280;47201;40.428;-8.436;2023-06-10T05:37:58;100400.56;;;17.26;100.00
61318;BME280;47201;40.428;-8.436;2023-06-10T05:39:59;100398.81;;;17.26;100.00
61318;BME280;47201;40.428;-8.436;2023-06-10T05:41:59;100395.34;;;17.24;100.00
61318;BME280;47201;40.428;-8.436;2023-06-10T05:44:01;100386.28;;;17.32;100.00
61318;BME280;47201;40.428;-8.436;2023-06-10T05:46:02;100401.97;;;17.36;100.00
61318;BME280;47201;40.428;-8.436;2023-06-10T05:48:02;100393.19;;;17.36;100.00
61318;BME280;47201;40.428;-8.436;2023-06-10T05:50:03;100402.75;;;17.40;100.00
61318;BME280;47201;40.428;-8.436;2023-06-10T05:52:07;100404.56;;;17.38;100.00
61318;BME280;47201;40.428;-8.436;2023-06-10T05:54:07;100400.03;;;17.41;100.00
61318;BME280;47201;40.428;-8.436;2023-06-10T05:56:08;100409.59;;;17.46;100.00
61318;BME280;47201;40.428;-8.436;2023-06-10T05:58:08;100412.88;;;17.52;100.00
61318;BME280;47201;40.428;-8.436;2023-06-10T06:00:09;100414.38;;;17.59;100.00
61318;BME280;47201;40.428;-8.436;2023-06-10T06:02:13;100427.38;;;17.66;100.00
61318;BME280;47201;40.428;-8.436;2023-06-10T06:04:13;100431.59;;;17.71;100.00
61318;BME280;47201;40.428;-8.436;2023-06-10T06:06:14;100425.00;;;17.83;100.00
61318;BME280;47201;40.428;-8.436;2023-06-10T06:08:15;100429.81;;;17.97;100.00
61318;BME280;47201;40.428;-8.436;2023-06-10T06:10:18;100429.13;;;18.16;100.00
61318;BME280;47201;40.428;-8.436;2023-06-10T06:12:22;100417.88;;;18.33;100.00
61318;BME280;47201;40.428;-8.436;2023-06-10T06:14:22;100428.50;;;18.55;100.00
61318;BME280;47201;40.428;-8.436;2023-06-10T06:16:23;100428.28;;;18.83;100.00
61318;BME280;47201;40.428;-8.436;2023-06-10T06:18:23;100430.81;;;19.09;100.00
61318;BME280;47201;40.428;-8.436;2023-06-10T06:20:24;100440.31;;;19.35;100.00
61318;BME280;47201;40.428;-8.436;2023-06-10T06:22:24;100439.66;;;19.50;100.00
61318;BME280;47201;40.428;-8.436;2023-06-10T06:24:25;100441.53;;;19.48;100.00
61318;BME280;47201;40.428;-8.436;2023-06-10T06:26:25;100439.72;;;19.49;100.00
61318;BME280;47201;40.428;-8.436;2023-06-10T06:28:27;100442.72;;;19.41;100.00
61318;BME280;47201;40.428;-8.436;2023-06-10T06:30:29;100441.44;;;19.29;100.00
61318;BME280;47201;40.428;-8.436;2023-06-10T06:32:29;100441.69;;;19.23;100.00
61318;BME280;47201;40.428;-8.436;2023-06-10T06:34:30;100445.09;;;19.05;100.00
61318;BME280;47201;40.428;-8.436;2023-06-10T06:36:31;100441.91;;;18.96;100.00
61318;BME280;47201;40.428;-8.436;2023-06-10T06:38:32;100437.81;;;18.87;100.00
61318;BME280;47201;40.428;-8.436;2023-06-10T06:40:33;100447.59;;;18.85;100.00
61318;BME280;47201;40.428;-8.436;2023-06-10T06:42:34;100443.28;;;18.83;100.00
61318;BME280;47201;40.428;-8.436;2023-06-10T06:44:42;100443.91;;;18.90;100.00
61318;BME280;47201;40.428;-8.436;2023-06-10T06:46:43;100449.38;;;19.09;100.00
61318;BME280;47201;40.428;-8.436;2023-06-10T06:48:43;100449.94;;;19.38;100.00
61318;BME280;47201;40.428;-8.436;2023-06-10T06:50:44;100452.69;;;19.55;100.00
61318;BME280;47201;40.428;-8.436;2023-06-10T06:52:44;100455.50;;;19.52;100.00
61318;BME280;47201;40.428;-8.436;2023-06-10T06:54:45;100454.50;;;19.34;100.00
61318;BME280;47201;40.428;-8.436;2023-06-10T06:56:45;100460.28;;;19.22;100.00
61318;BME280;47201;40.428;-8.436;2023-06-10T06:58:46;100461.44;;;19.16;100.00
61318;BME280;47201;40.428;-8.436;2023-06-10T07:00:46;100464.41;;;19.29;100.00
61318;BME280;47201;40.428;-8.436;2023-06-10T07:02:47;100462.56;;;19.52;100.00
61318;BME280;47201;40.428;-8.436;2023-06-10T07:04:48;100463.25;;;19.77;100.00
61318;BME280;47201;40.428;-8.436;2023-06-10T07:06:50;100472.00;;;20.00;100.00
61318;BME280;47201;40.428;-8.436;2023-06-10T07:08:50;100473.25;;;20.12;100.00
61318;BME280;47201;40.428;-8.436;2023-06-10T07:10:51;100479.94;;;20.40;100.00
61318;BME280;47201;40.428;-8.436;2023-06-10T07:12:52;100484.28;;;20.81;100.00
61318;BME280;47201;40.428;-8.436;2023-06-10T07:14:52;100484.50;;;21.13;100.00
61318;BME280;47201;40.428;-8.436;2023-06-10T07:16:53;100489.16;;;21.44;100.00
61318;BME280;47201;40.428;-8.436;2023-06-10T07:18:53;100488.00;;;21.85;100.00
61318;BME280;47201;40.428;-8.436;2023-06-10T07:20:54;100485.31;;;22.68;100.00
61318;BME280;47201;40.428;-8.436;2023-06-10T07:22:54;100489.97;;;23.28;100.00
61318;BME280;47201;40.428;-8.436;2023-06-10T07:24:55;100499.63;;;23.90;95.20
61318;BME280;47201;40.428;-8.436;2023-06-10T07:26:55;100509.97;;;24.40;90.26
61318;BME280;47201;40.428;-8.436;2023-06-10T07:28:56;100516.59;;;23.89;90.59
61318;BME280;47201;40.428;-8.436;2023-06-10T07:30:56;100515.84;;;23.57;92.55
61318;BME280;47201;40.428;-8.436;2023-06-10T07:32:57;100512.66;;;23.20;95.12
61318;BME280;47201;40.428;-8.436;2023-06-10T07:34:57;100520.75;;;22.86;97.81
61318;BME280;47201;40.428;-8.436;2023-06-10T07:36:58;100515.22;;;22.57;100.00
61318;BME280;47201;40.428;-8.436;2023-06-10T07:38:58;100516.56;;;22.32;100.00
61318;BME280;47201;40.428;-8.436;2023-06-10T07:40:59;100519.38;;;22.29;100.00
61318;BME280;47201;40.428;-8.436;2023-06-10T07:43:00;100515.66;;;21.98;100.00
61318;BME280;47201;40.428;-8.436;2023-06-10T07:45:00;100520.28;;;21.95;100.00
61318;BME280;47201;40.428;-8.436;2023-06-10T07:47:00;100526.72;;;21.73;100.00
61318;BME280;47201;40.428;-8.436;2023-06-10T07:49:01;100519.91;;;21.67;100.00
61318;BME280;47201;40.428;-8.436;2023-06-10T07:51:02;100516.34;;;22.53;100.00
61318;BME280;47201;40.428;-8.436;2023-06-10T07:53:03;100521.25;;;23.09;100.00
61318;BME280;47201;40.428;-8.436;2023-06-10T07:55:04;100522.28;;;23.83;92.45
61318;BME280;47201;40.428;-8.436;2023-06-10T07:57:04;100527.03;;;25.35;83.00
61318;BME280;47201;40.428;-8.436;2023-06-10T07:59:07;100531.81;;;27.24;72.80
61318;BME280;47201;40.428;-8.436;2023-06-10T08:01:07;100534.28;;;28.89;63.72
61318;BME280;47201;40.428;-8.436;2023-06-10T08:03:08;100534.41;;;29.85;61.55
61318;BME280;47201;40.428;-8.436;2023-06-10T08:05:08;100541.63;;;31.09;56.34
61318;BME280;47201;40.428;-8.436;2023-06-10T08:07:09;100549.31;;;31.53;54.23
61318;BME280;47201;40.428;-8.436;2023-06-10T08:09:09;100550.47;;;31.79;54.69
61318;BME280;47201;40.428;-8.436;2023-06-10T08:11:13;100551.22;;;32.57;54.88
61318;BME280;47201;40.428;-8.436;2023-06-10T08:13:13;100552.09;;;32.85;55.42
61318;BME280;47201;40.428;-8.436;2023-06-10T08:15:14;100553.19;;;33.65;55.32
61318;BME280;47201;40.428;-8.436;2023-06-10T08:17:14;100565.66;;;33.21;58.21
61318;BME280;47201;40.428;-8.436;2023-06-10T08:19:15;100568.53;;;33.92;58.22
61318;BME280;47201;40.428;-8.436;2023-06-10T08:21:15;100565.19;;;34.59;58.97
61318;BME280;47201;40.428;-8.436;2023-06-10T08:23:16;100560.34;;;35.64;60.30
61318;BME280;47201;40.428;-8.436;2023-06-10T08:25:16;100560.94;;;36.72;60.58
61318;BME280;47201;40.428;-8.436;2023-06-10T08:27:17;100555.56;;;37.65;62.85
61318;BME280;47201;40.428;-8.436;2023-06-10T08:29:17;100554.78;;;37.79;65.48
61318;BME280;47201;40.428;-8.436;2023-06-10T08:31:18;100555.13;;;37.76;67.36
61318;BME280;47201;40.428;-8.436;2023-06-10T08:33:18;100545.69;;;36.62;72.16
61318;BME280;47201;40.428;-8.436;2023-06-10T08:35:19;100542.28;;;37.00;73.36
61318;BME280;47201;40.428;-8.436;2023-06-10T08:37:19;100548.28;;;36.87;73.04
61318;BME280;47201;40.428;-8.436;2023-06-10T08:39:20;100549.00;;;36.81;74.02
61318;BME280;47201;40.428;-8.436;2023-06-10T08:41:23;100543.34;;;35.95;76.72
61318;BME280;47201;40.428;-8.436;2023-06-10T08:45:30;100541.81;;;35.67;77.29
61318;BME280;47201;40.428;-8.436;2023-06-10T08:47:35;100544.72;;;35.74;77.67
61318;BME280;47201;40.428;-8.436;2023-06-10T08:49:41;100547.75;;;36.04;77.62
61318;BME280;47201;40.428;-8.436;2023-06-10T08:51:43;100540.59;;;36.11;78.01
61318;BME280;47201;40.428;-8.436;2023-06-10T08:53:47;100554.09;;;36.44;77.59
61318;BME280;47201;40.428;-8.436;2023-06-10T08:55:50;100550.41;;;36.68;77.36
61318;BME280;47201;40.428;-8.436;2023-06-10T08:57:52;100549.63;;;37.84;76.66
61318;BME280;47201;40.428;-8.436;2023-06-10T08:59:53;100559.47;;;38.38;74.79
61318;BME280;47201;40.428;-8.436;2023-06-10T09:01:57;100550.97;;;38.48;75.40
61318;BME280;47201;40.428;-8.436;2023-06-10T09:03:58;100554.41;;;38.72;74.77
61318;BME280;47201;40.428;-8.436;2023-06-10T09:05:59;100550.16;;;39.21;75.50
61318;BME280;47201;40.428;-8.436;2023-06-10T09:08:00;100546.88;;;38.89;76.40
61318;BME280;47201;40.428;-8.436;2023-06-10T09:10:01;100547.72;;;37.00;78.84
61318;BME280;47201;40.428;-8.436;2023-06-10T09:12:04;100543.94;;;34.46;82.82
61318;BME280;47201;40.428;-8.436;2023-06-10T09:14:04;100530.41;;;31.53;88.16
61318;BME280;47201;40.428;-8.436;2023-06-10T09:16:05;100534.75;;;29.92;91.04
61318;BME280;47201;40.428;-8.436;2023-06-10T09:18:06;100535.06;;;28.34;95.54
61318;BME280;47201;40.428;-8.436;2023-06-10T09:20:07;100528.06;;;27.38;98.09
61318;BME280;47201;40.428;-8.436;2023-06-10T09:22:07;100516.53;;;26.63;100.00
61318;BME280;47201;40.428;-8.436;2023-06-10T09:24:08;100520.72;;;27.04;97.84
61318;BME280;47201;40.428;-8.436;2023-06-10T09:26:09;100527.09;;;29.34;90.35
61318;BME280;47201;40.428;-8.436;2023-06-10T09:28:14;100530.13;;;31.66;81.50
61318;BME280;47201;40.428;-8.436;2023-06-10T09:32:28;100538.59;;;33.58;76.62
61318;BME280;47201;40.428;-8.436;2023-06-10T09:34:30;100538.13;;;33.08;77.41
61318;BME280;47201;40.428;-8.436;2023-06-10T09:36:31;100533.91;;;32.96;78.71
61318;BME280;47201;40.428;-8.436;2023-06-10T09:38:33;100528.53;;;32.40;80.68
61318;BME280;47201;40.428;-8.436;2023-06-10T09:40:33;100535.34;;;33.18;79.26
61318;BME280;47201;40.428;-8.436;2023-06-10T09:42:52;100530.50;;;34.88;76.32
61318;BME280;47201;40.428;-8.436;2023-06-10T09:44:56;100534.16;;;35.63;74.92
61318;BME280;47201;40.428;-8.436;2023-06-10T09:46:56;100536.28;;;36.25;75.03
61318;BME280;47201;40.428;-8.436;2023-06-10T09:48:59;100535.97;;;36.20;74.56
61318;BME280;47201;40.428;-8.436;2023-06-10T09:51:00;100536.06;;;36.43;75.36
61318;BME280;47201;40.428;-8.436;2023-06-10T09:53:00;100530.63;;;35.70;76.67
61318;BME280;47201;40.428;-8.436;2023-06-10T09:55:02;100533.34;;;36.35;77.37
61318;BME280;47201;40.428;-8.436;2023-06-10T09:57:06;100545.66;;;37.25;75.63
61318;BME280;47201;40.428;-8.436;2023-06-10T09:59:07;100537.66;;;36.69;76.89
61318;BME280;47201;40.428;-8.436;2023-06-10T10:01:12;100537.38;;;36.87;76.59
61318;BME280;47201;40.428;-8.436;2023-06-10T10:03:14;100529.59;;;35.63;79.13
61318;BME280;47201;40.428;-8.436;2023-06-10T10:05:22;100533.41;;;34.94;80.48
61318;BME280;47201;40.428;-8.436;2023-06-10T10:07:23;100524.63;;;35.34;80.20
61318;BME280;47201;40.428;-8.436;2023-06-10T10:09:23;100530.81;;;34.76;81.01
61318;BME280;47201;40.428;-8.436;2023-06-10T10:11:24;100529.63;;;34.87;80.72
61318;BME280;47201;40.428;-8.436;2023-06-10T10:13:26;100529.09;;;33.80;82.12
61318;BME280;47201;40.428;-8.436;2023-06-10T10:15:28;100526.38;;;34.32;82.86
61318;BME280;47201;40.428;-8.436;2023-06-10T10:17:31;100529.75;;;35.70;80.57
61318;BME280;47201;40.428;-8.436;2023-06-10T10:19:32;100535.16;;;36.03;79.50
61318;BME280;47201;40.428;-8.436;2023-06-10T10:21:43;100535.78;;;36.21;78.80
61318;BME280;47201;40.428;-8.436;2023-06-10T10:23:52;100538.50;;;36.70;78.08
61318;BME280;47201;40.428;-8.436;2023-06-10T10:25:53;100540.34;;;37.09;77.64
61318;BME280;47201;40.428;-8.436;2023-06-10T10:28:06;100526.38;;;34.75;81.24
61318;BME280;47201;40.428;-8.436;2023-06-10T10:30:08;100530.34;;;32.39;84.17
61318;BME280;47201;40.428;-8.436;2023-06-10T10:32:11;100520.88;;;31.58;85.53